createdAt,value
2022-08-29T00:01:05.528Z,101487.16
2022-08-29T00:03:32.194Z,101487.97
2022-08-29T00:05:58.673Z,101490.88
2022-08-29T00:08:25.645Z,101491.13
2022-08-29T00:10:52.167Z,101486.09
2022-08-29T00:13:19.253Z,101481.91
2022-08-29T00:15:46.195Z,101480.31
2022-08-29T00:18:14.437Z,101484.56
2022-08-29T00:20:41.929Z,101484.56
2022-08-29T00:23:08.900Z,101480.84
2022-08-29T00:25:35.899Z,101486.09
2022-08-29T00:28:02.661Z,101474.53
2022-08-29T00:30:29.958Z,101479.00
2022-08-29T00:32:56.608Z,101475.34
2022-08-29T00:35:26.895Z,101481.13
2022-08-29T00:37:54.702Z,101474.53
2022-08-29T00:40:32.117Z,101480.31
2022-08-29T00:42:58.829Z,101486.91
2022-08-29T00:45:25.684Z,101483.50
2022-08-29T00:47:59.844Z,101486.38
2022-08-29T00:50:28.962Z,101491.38
2022-08-29T00:52:57.601Z,101480.31
2022-08-29T00:55:27.839Z,101477.16
2022-08-29T00:57:57.869Z,101481.13
2022-08-29T01:00:26.694Z,101482.16
2022-08-29T01:02:54.355Z,101489.28
2022-08-29T01:05:21.858Z,101481.91
2022-08-29T01:07:48.866Z,101494.53
2022-08-29T01:10:36.249Z,101477.69
2022-08-29T01:13:05.093Z,101485.56
2022-08-29T01:15:39.343Z,101476.38
2022-08-29T01:18:09.305Z,101485.06
2022-08-29T01:21:09.610Z,101487.16
2022-08-29T01:23:44.852Z,101483.22
2022-08-29T01:26:12.914Z,101486.63
2022-08-29T01:28:45.954Z,101489.28
2022-08-29T01:31:37.799Z,101495.06
2022-08-29T01:34:07.440Z,101491.66
2022-08-29T01:37:02.145Z,101493.47
2022-08-29T01:39:32.144Z,101496.63
2022-08-29T01:42:03.844Z,101493.75
2022-08-29T01:44:30.332Z,101487.69
2022-08-29T01:47:02.852Z,101497.44
2022-08-29T01:49:31.807Z,101496.63
2022-08-29T01:51:58.408Z,101495.06
2022-08-29T01:54:24.891Z,101493.75
2022-08-29T01:56:53.070Z,101496.63
2022-08-29T01:59:23.933Z,101493.75
2022-08-29T02:01:57.114Z,101502.41
2022-08-29T02:04:23.822Z,101509.25
2022-08-29T02:06:50.301Z,101502.69
2022-08-29T02:09:17.377Z,101506.66
2022-08-29T02:11:45.664Z,101502.16
2022-08-29T02:14:16.623Z,101499.28
2022-08-29T02:16:46.210Z,101490.34
2022-08-29T02:19:12.745Z,101499.28
2022-08-29T02:21:40.571Z,101501.63
2022-08-29T02:24:24.315Z,101497.69
2022-08-29T02:26:52.165Z,101485.59
2022-08-29T02:29:18.600Z,101493.47
2022-08-29T02:31:45.079Z,101493.47
2022-08-29T02:34:12.901Z,101494.78
2022-08-29T02:36:40.806Z,101489.28
2022-08-29T02:39:08.325Z,101497.69
2022-08-29T02:41:35.830Z,101495.84
2022-08-29T02:44:03.125Z,101501.63
2022-08-29T02:46:29.629Z,101498.50
2022-08-29T02:49:00.850Z,101502.69
2022-08-29T02:51:31.989Z,101502.69
2022-08-29T02:54:00.251Z,101506.66
2022-08-29T02:56:27.442Z,101506.66
2022-08-29T02:58:54.056Z,101500.84
2022-08-29T03:01:22.470Z,101502.69
2022-08-29T03:03:50.408Z,101506.91
2022-08-29T03:06:18.449Z,101497.44
2022-08-29T03:08:44.974Z,101495.59
2022-08-29T03:11:11.427Z,101496.63
2022-08-29T03:13:38.377Z,101496.09
2022-08-29T03:16:05.263Z,101499.53
2022-08-29T03:18:32.338Z,101498.22
2022-08-29T03:20:59.539Z,101484.56
2022-08-29T03:23:26.089Z,101486.38
2022-08-29T03:25:52.554Z,101505.59
2022-08-29T03:28:19.026Z,101493.75
2022-08-29T03:30:45.533Z,101492.19
2022-08-29T03:33:12.249Z,101490.31
2022-08-29T03:35:39.694Z,101492.44
2022-08-29T03:38:06.954Z,101489.78
2022-08-29T03:40:33.939Z,101494.53
2022-08-29T03:43:00.685Z,101483.50
2022-08-29T03:45:27.167Z,101480.84
2022-08-29T03:47:53.870Z,101485.06
2022-08-29T03:50:21.539Z,101491.66
2022-08-29T03:52:48.682Z,101491.66
2022-08-29T03:55:16.428Z,101490.31
2022-08-29T03:57:43.612Z,101490.84
2022-08-29T04:00:15.934Z,101484.03
2022-08-29T04:02:44.607Z,101487.69
2022-08-29T04:05:12.038Z,101495.31
2022-08-29T04:07:49.282Z,101492.97
2022-08-29T04:10:32.520Z,101492.44
2022-08-29T04:13:00.213Z,101490.84
2022-08-29T04:15:28.619Z,101487.41
2022-08-29T04:17:57.750Z,101496.63
2022-08-29T04:20:26.928Z,101495.31
2022-08-29T04:22:54.750Z,101495.31
2022-08-29T04:25:22.978Z,101504.00
2022-08-29T04:27:49.574Z,101494.53
2022-08-29T04:30:18.909Z,101495.31
2022-08-29T04:32:45.373Z,101498.75
2022-08-29T04:35:13.089Z,101504.00
2022-08-29T04:37:41.142Z,101502.41
2022-08-29T04:40:09.337Z,101490.59
2022-08-29T04:42:37.868Z,101505.31
2022-08-29T04:45:07.031Z,101501.63
2022-08-29T04:47:37.038Z,101505.06
2022-08-29T04:50:04.889Z,101495.59
2022-08-29T04:52:31.567Z,101501.91
2022-08-29T04:54:58.541Z,101509.53
2022-08-29T04:57:25.129Z,101511.13
2022-08-29T04:59:56.005Z,101519.00
2022-08-29T05:02:23.733Z,101517.44
2022-08-29T05:04:53.554Z,101520.84
2022-08-29T05:07:21.580Z,101533.75
2022-08-29T05:09:50.547Z,101526.41
2022-08-29T05:12:17.036Z,101534.25
2022-08-29T05:14:43.533Z,101527.16
2022-08-29T05:17:10.072Z,101529.78
2022-08-29T05:19:37.761Z,101535.06
2022-08-29T05:22:13.885Z,101532.16
2022-08-29T05:24:40.848Z,101541.91
2022-08-29T05:27:09.446Z,101545.34
2022-08-29T05:29:42.916Z,101539.78
2022-08-29T05:32:10.934Z,101546.63
2022-08-29T05:34:38.717Z,101541.63
2022-08-29T05:37:07.571Z,101549.78
2022-08-29T05:39:35.760Z,101548.22
2022-08-29T05:42:02.515Z,101546.63
2022-08-29T05:44:34.951Z,101548.22
2022-08-29T05:47:06.981Z,101551.66
2022-08-29T05:49:35.927Z,101541.91
2022-08-29T05:52:02.661Z,101549.78
2022-08-29T05:54:33.117Z,101556.09
2022-08-29T05:56:59.644Z,101554.00
2022-08-29T05:59:26.208Z,101557.41
2022-08-29T06:01:52.661Z,101554.53
2022-08-29T06:04:19.190Z,101552.97
2022-08-29T06:06:45.716Z,101565.06
2022-08-29T06:09:13.506Z,101567.69
2022-08-29T06:11:40.326Z,101566.63
2022-08-29T06:14:06.861Z,101562.94
2022-08-29T06:16:33.597Z,101574.00
2022-08-29T06:19:00.571Z,101569.78
2022-08-29T06:21:27.089Z,101565.56
2022-08-29T06:23:54.679Z,101571.63
2022-08-29T06:26:21.223Z,101571.38
2022-08-29T06:28:48.556Z,101570.31
2022-08-29T06:31:20.835Z,101573.47
2022-08-29T06:33:50.194Z,101575.06
2022-08-29T06:36:16.741Z,101582.41
2022-08-29T06:38:43.190Z,101581.13
2022-08-29T06:41:13.237Z,101579.78
2022-08-29T06:43:40.702Z,101575.31
2022-08-29T06:46:08.626Z,101580.84
2022-08-29T06:48:35.568Z,101580.31
2022-08-29T06:51:03.014Z,101586.09
2022-08-29T06:53:32.060Z,101585.06
2022-08-29T06:56:04.642Z,101581.91
2022-08-29T06:58:32.209Z,101576.13
2022-08-29T07:00:59.410Z,101583.47
2022-08-29T07:03:25.914Z,101579.25
2022-08-29T07:05:53.822Z,101579.78
2022-08-29T07:10:47.154Z,101582.66
2022-08-29T07:13:13.765Z,101590.06
2022-08-29T07:15:40.450Z,101592.44
2022-08-29T07:18:06.922Z,101585.56
2022-08-29T07:20:33.423Z,101585.59
2022-08-29T07:22:59.890Z,101586.34
2022-08-29T07:25:27.591Z,101596.09
2022-08-29T07:27:54.132Z,101590.81
2022-08-29T07:30:21.289Z,101577.94
2022-08-29T07:32:47.735Z,101585.06
2022-08-29T07:35:18.603Z,101587.16
2022-08-29T07:37:52.153Z,101596.38
2022-08-29T07:40:18.659Z,101600.34
2022-08-29T07:42:45.136Z,101603.72
2022-08-29T07:45:11.964Z,101605.34
2022-08-29T07:47:39.090Z,101604.53
2022-08-29T07:50:10.904Z,101605.06
2022-08-29T07:52:37.401Z,101612.16
2022-08-29T07:55:05.512Z,101611.09
2022-08-29T07:57:32.563Z,101606.38
2022-08-29T08:00:07.095Z,101605.56
2022-08-29T08:02:38.832Z,101607.16
2022-08-29T08:05:07.063Z,101609.78
2022-08-29T08:07:35.390Z,101610.81
2022-08-29T08:10:03.706Z,101615.03
2022-08-29T08:12:30.425Z,101607.13
2022-08-29T08:14:57.132Z,101610.25
2022-08-29T08:17:24.180Z,101625.03
2022-08-29T08:19:50.692Z,101619.75
2022-08-29T08:22:17.134Z,101632.66
2022-08-29T08:24:43.726Z,101629.50
2022-08-29T08:27:10.746Z,101627.63
2022-08-29T08:29:37.202Z,101627.38
2022-08-29T08:32:04.492Z,101621.53
2022-08-29T08:34:31.270Z,101631.03
2022-08-29T08:36:57.701Z,101629.97
2022-08-29T08:39:24.211Z,101636.81
2022-08-29T08:41:53.199Z,101636.03
2022-08-29T08:44:19.994Z,101635.75
2022-08-29T08:46:50.396Z,101637.84
2022-08-29T08:49:38.104Z,101628.91
2022-08-29T08:52:13.728Z,101635.72
2022-08-29T08:54:49.817Z,101636.78
2022-08-29T08:57:16.322Z,101637.25
2022-08-29T08:59:54.454Z,101646.50
2022-08-29T09:02:36.032Z,101638.88
2022-08-29T09:05:27.445Z,101643.88
2022-08-29T09:08:24.843Z,101638.84
2022-08-29T09:11:00.045Z,101635.41
2022-08-29T09:13:27.205Z,101643.56
2022-08-29T09:15:58.245Z,101645.13
2022-08-29T09:18:39.629Z,101639.84
2022-08-29T09:21:40.120Z,101644.34
2022-08-29T09:24:10.673Z,101643.22
2022-08-29T09:26:37.145Z,101639.25
2022-08-29T09:29:03.828Z,101639.78
2022-08-29T09:31:34.347Z,101647.13
2022-08-29T09:34:05.013Z,101645.06
2022-08-29T09:36:49.709Z,101639.19
2022-08-29T09:39:26.151Z,101643.41
2022-08-29T09:41:55.898Z,101639.66
2022-08-29T09:44:34.062Z,101638.06
2022-08-29T09:47:07.867Z,101643.56
2022-08-29T09:49:35.470Z,101639.34
2022-08-29T09:52:15.493Z,101641.19
2022-08-29T09:54:43.526Z,101647.22
2022-08-29T09:57:23.002Z,101649.38
2022-08-29T10:00:13.352Z,101647.50
2022-08-29T10:02:43.552Z,101653.78
2022-08-29T10:05:27.785Z,101647.44
2022-08-29T10:07:54.697Z,101650.31
2022-08-29T10:10:26.747Z,101641.84
2022-08-29T10:13:06.808Z,101633.69
2022-08-29T10:15:50.438Z,101639.19
2022-08-29T10:18:27.214Z,101647.66
2022-08-29T10:21:07.224Z,101640.78
2022-08-29T10:23:48.188Z,101645.53
2022-08-29T10:26:26.571Z,101641.28
2022-08-29T10:29:39.754Z,101653.72
2022-08-29T10:32:32.096Z,101639.44
2022-08-29T10:35:11.570Z,101649.72
2022-08-29T10:38:05.214Z,101654.97
2022-08-29T10:41:05.464Z,101656.63
2022-08-29T10:43:39.329Z,101658.91
2022-08-29T10:46:11.802Z,101657.31
2022-08-29T10:48:55.431Z,101649.88
2022-08-29T10:51:33.583Z,101653.25
2022-08-29T10:54:11.971Z,101651.16
2022-08-29T10:56:46.291Z,101644.75
2022-08-29T10:59:57.597Z,101642.09
2022-08-29T11:02:34.030Z,101657.16
2022-08-29T11:05:08.036Z,101647.91
2022-08-29T11:07:44.348Z,101658.44
2022-08-29T11:10:17.663Z,101662.09
2022-08-29T11:12:52.600Z,101662.09
2022-08-29T11:15:22.067Z,101664.94
2022-08-29T11:17:58.800Z,101653.59
2022-08-29T11:20:31.985Z,101651.28
2022-08-29T11:23:08.242Z,101647.00
2022-08-29T11:25:36.205Z,101654.88
2022-08-29T11:28:08.467Z,101654.59
2022-08-29T11:31:06.822Z,101649.81
2022-08-29T11:34:05.732Z,101650.84
2022-08-29T11:36:46.887Z,101657.84
2022-08-29T11:39:48.712Z,101660.16
2022-08-29T11:42:49.751Z,101659.81
2022-08-29T11:45:07.542Z,101659.78
2022-08-29T11:47:41.132Z,101665.03
2022-08-29T11:50:16.968Z,101659.22
2022-08-29T11:52:56.468Z,101662.69
2022-08-29T11:55:34.050Z,101662.84
2022-08-29T11:58:24.836Z,101665.50
2022-08-29T12:00:54.049Z,101671.81
2022-08-29T12:03:32.966Z,101665.50
2022-08-29T12:06:04.571Z,101663.84
2022-08-29T12:08:47.172Z,101664.44
2022-08-29T12:11:13.862Z,101659.59
2022-08-29T12:13:46.432Z,101663.00
2022-08-29T12:16:15.858Z,101666.69
2022-08-29T12:18:47.190Z,101669.28
2022-08-29T12:21:34.176Z,101678.34
2022-08-29T12:24:00.989Z,101663.97
2022-08-29T12:26:47.028Z,101670.56
2022-08-29T12:29:25.936Z,101666.88
2022-08-29T12:32:18.631Z,101667.06
2022-08-29T12:35:03.713Z,101669.53
2022-08-29T12:38:03.215Z,101673.47
2022-08-29T12:40:41.816Z,101674.53
2022-08-29T12:43:29.497Z,101669.53
2022-08-29T12:45:56.300Z,101668.94
2022-08-29T12:48:26.852Z,101681.91
2022-08-29T12:50:53.905Z,101673.97
2022-08-29T12:53:34.821Z,101666.25
2022-08-29T12:56:16.641Z,101656.94
2022-08-29T12:58:53.936Z,101664.56
2022-08-29T13:01:40.185Z,101662.66
2022-08-29T13:04:17.954Z,101661.81
2022-08-29T13:07:03.576Z,101652.31
2022-08-29T13:09:32.088Z,101647.13
2022-08-29T13:12:24.746Z,101641.75
2022-08-29T13:14:53.447Z,101653.63
2022-08-29T13:17:24.007Z,101640.91
2022-08-29T13:20:30.674Z,101647.81
2022-08-29T13:23:12.445Z,101642.41
2022-08-29T13:25:50.338Z,101644.75
2022-08-29T13:28:33.445Z,101639.66
2022-08-29T13:31:16.273Z,101649.19
2022-08-29T13:33:45.495Z,101649.97
2022-08-29T13:36:27.483Z,101646.47
2022-08-29T13:39:25.295Z,101642.09
2022-08-29T13:41:57.771Z,101648.16
2022-08-29T13:44:30.692Z,101651.56
2022-08-29T13:47:00.967Z,101645.72
2022-08-29T13:49:33.158Z,101646.19
2022-08-29T13:52:00.869Z,101633.78
2022-08-29T13:54:33.060Z,101638.09
2022-08-29T13:57:07.312Z,101629.81
2022-08-29T13:59:37.497Z,101633.28
2022-08-29T14:02:09.040Z,101624.72
2022-08-29T14:04:39.813Z,101630.00
2022-08-29T14:07:11.396Z,101635.03
2022-08-29T14:09:41.808Z,101643.22
2022-08-29T14:12:09.224Z,101638.66
2022-08-29T14:14:35.847Z,101635.97
2022-08-29T14:17:02.682Z,101641.00
2022-08-29T14:19:30.535Z,101642.91
2022-08-29T14:22:00.496Z,101635.97
2022-08-29T14:24:28.997Z,101633.28
2022-08-29T14:27:01.730Z,101638.03
2022-08-29T14:29:33.821Z,101633.53
2022-08-29T14:32:03.123Z,101638.03
2022-08-29T14:34:32.389Z,101632.84
2022-08-29T14:37:02.400Z,101628.25
2022-08-29T14:39:29.580Z,101630.59
2022-08-29T14:41:56.128Z,101634.38
2022-08-29T14:44:23.430Z,101641.19
2022-08-29T14:46:50.881Z,101634.56
2022-08-29T14:49:18.075Z,101639.66
2022-08-29T14:51:44.657Z,101642.75
2022-08-29T14:54:12.211Z,101640.09
2022-08-29T14:56:55.015Z,101634.25
2022-08-29T14:59:22.865Z,101639.63
2022-08-29T15:01:54.250Z,101639.88
2022-08-29T15:04:36.147Z,101638.03
2022-08-29T15:07:09.532Z,101639.34
2022-08-29T15:09:38.309Z,101630.16
2022-08-29T15:12:05.212Z,101637.06
2022-08-29T15:14:32.103Z,101642.72
2022-08-29T15:16:58.730Z,101644.78
2022-08-29T15:22:12.948Z,101644.94
2022-08-29T15:24:39.790Z,101647.13
2022-08-29T15:27:08.116Z,101641.25
2022-08-29T15:29:37.304Z,101644.94
2022-08-29T15:32:04.772Z,101640.44
2022-08-29T15:34:33.532Z,101644.94
2022-08-29T15:37:01.253Z,101653.66
2022-08-29T15:39:28.453Z,101648.16
2022-08-29T15:41:56.856Z,101646.03
2022-08-29T15:44:23.714Z,101647.38
2022-08-29T15:46:51.859Z,101642.13
2022-08-29T15:49:21.822Z,101641.56
2022-08-29T15:51:49.064Z,101651.69
2022-08-29T15:54:15.925Z,101651.94
2022-08-29T15:56:42.853Z,101642.41
2022-08-29T15:59:12.544Z,101653.81
2022-08-29T16:01:42.521Z,101649.09
2022-08-29T16:04:10.203Z,101654.91
2022-08-29T16:06:37.515Z,101653.09
2022-08-29T16:09:09.055Z,101640.19
2022-08-29T16:11:44.339Z,101655.31
2022-08-29T16:14:47.134Z,101651.06
2022-08-29T16:16:58.859Z,101648.38
2022-08-29T16:19:25.610Z,101650.84
2022-08-29T16:21:52.853Z,101655.06
2022-08-29T16:24:21.710Z,101652.16
2022-08-29T16:26:48.376Z,101664.28
2022-08-29T16:29:14.922Z,101658.53
2022-08-29T16:31:53.810Z,101663.81
2022-08-29T16:34:20.846Z,101664.91
2022-08-29T16:36:47.324Z,101668.34
2022-08-29T16:39:13.781Z,101663.56
2022-08-29T16:41:40.603Z,101667.75
2022-08-29T16:44:08.198Z,101662.22
2022-08-29T16:46:34.711Z,101673.84
2022-08-29T16:49:01.281Z,101667.09
2022-08-29T16:51:28.395Z,101664.16
2022-08-29T16:53:58.222Z,101673.84
2022-08-29T16:56:25.574Z,101670.66
2022-08-29T16:59:01.759Z,101666.72
2022-08-29T17:01:40.731Z,101666.72
2022-08-29T17:04:10.707Z,101680.16
2022-08-29T17:06:39.590Z,101672.22
2022-08-29T17:09:08.849Z,101674.34
2022-08-29T17:11:37.889Z,101677.03
2022-08-29T17:14:05.255Z,101677.09
2022-08-29T17:16:31.984Z,101678.13
2022-08-29T17:18:58.772Z,101685.81
2022-08-29T17:21:26.643Z,101682.59
2022-08-29T17:23:55.305Z,101679.22
2022-08-29T17:26:22.840Z,101684.25
2022-08-29T17:28:50.001Z,101688.31
2022-08-29T17:31:16.920Z,101693.28
2022-08-29T17:33:43.752Z,101691.72
2022-08-29T17:36:10.997Z,101699.94
2022-08-29T17:38:40.588Z,101698.84
2022-08-29T17:41:15.238Z,101698.41
2022-08-29T17:43:45.299Z,101702.63
2022-08-29T17:46:11.873Z,101702.41
2022-08-29T17:48:38.639Z,101707.94
2022-08-29T17:51:05.515Z,101704.81
2022-08-29T17:53:32.581Z,101700.56
2022-08-29T17:56:11.158Z,101703.84
2022-08-29T17:58:37.802Z,101699.13
2022-08-29T18:01:04.363Z,101695.97
2022-08-29T18:03:31.005Z,101697.28
2022-08-29T18:05:57.496Z,101699.72
2022-08-29T18:08:23.971Z,101698.69
2022-08-29T18:10:50.453Z,101701.84
2022-08-29T18:13:21.428Z,101704.56
2022-08-29T18:15:48.363Z,101700.88
2022-08-29T18:18:20.029Z,101708.78
2022-08-29T18:20:46.561Z,101707.50
2022-08-29T18:23:13.008Z,101704.56
2022-08-29T18:25:39.486Z,101713.34
2022-08-29T18:28:08.159Z,101709.97
2022-08-29T18:30:35.370Z,101715.81
2022-08-29T18:33:01.917Z,101720.63
2022-08-29T18:35:28.418Z,101729.06
2022-08-29T18:37:54.932Z,101724.38
2022-08-29T18:40:21.585Z,101722.28
2022-08-29T18:42:48.456Z,101733.66
2022-08-29T18:45:14.995Z,101730.00
2022-08-29T18:47:41.504Z,101725.81
2022-08-29T18:50:27.149Z,101725.81
2022-08-29T18:52:54.226Z,101740.41
2022-08-29T18:55:22.725Z,101738.56
2022-08-29T18:57:50.181Z,101743.31
2022-08-29T19:00:16.946Z,101745.22
2022-08-29T19:02:43.493Z,101744.16
2022-08-29T19:05:10.764Z,101745.78
2022-08-29T19:07:37.516Z,101742.63
2022-08-29T19:10:06.091Z,101741.31
2022-08-29T19:12:32.686Z,101740.56
2022-08-29T19:15:00.026Z,101742.94
2022-08-29T19:17:26.843Z,101746.38
2022-08-29T19:20:12.405Z,101745.31
2022-08-29T19:22:39.250Z,101750.09
2022-08-29T19:25:08.646Z,101745.88
2022-08-29T19:27:43.739Z,101748.53
2022-08-29T19:30:13.440Z,101749.59
2022-08-29T19:32:40.681Z,101745.66
2022-08-29T19:35:07.513Z,101741.72
2022-08-29T19:37:34.038Z,101743.03
2022-08-29T19:40:01.328Z,101748.59
2022-08-29T19:42:28.242Z,101758.38
2022-08-29T19:44:55.281Z,101750.72
2022-08-29T19:47:23.360Z,101747.88
2022-08-29T19:49:50.796Z,101747.06
2022-08-29T19:52:17.438Z,101749.72
2022-08-29T19:54:43.996Z,101751.84
2022-08-29T19:57:14.809Z,101753.44
2022-08-29T19:59:42.494Z,101761.91
2022-08-29T20:02:10.235Z,101755.56
2022-08-29T20:04:38.978Z,101753.97
2022-08-29T20:07:05.518Z,101753.47
2022-08-29T20:09:32.537Z,101750.34
2022-08-29T20:12:00.365Z,101759.56
2022-08-29T20:14:26.940Z,101759.81
2022-08-29T20:16:53.411Z,101758.00
2022-08-29T20:19:21.329Z,101762.22
2022-08-29T20:21:49.647Z,101761.16
2022-08-29T20:24:17.528Z,101758.78
2022-08-29T20:26:46.632Z,101759.84
2022-08-29T20:29:16.857Z,101756.47
2022-08-29T20:31:44.772Z,101759.06
2022-08-29T20:34:11.406Z,101768.34
2022-08-29T20:36:56.855Z,101756.22
2022-08-29T20:39:23.916Z,101768.06
2022-08-29T20:41:56.845Z,101762.50
2022-08-29T20:44:28.142Z,101759.88
2022-08-29T20:46:57.175Z,101765.97
2022-08-29T20:49:25.611Z,101767.25
2022-08-29T20:51:52.696Z,101774.94
2022-08-29T20:54:24.335Z,101773.09
2022-08-29T20:56:51.439Z,101780.72
2022-08-29T20:59:18.631Z,101779.69
2022-08-29T21:01:45.345Z,101763.06
2022-08-29T21:04:31.997Z,101770.19
2022-08-29T21:07:04.182Z,101774.16
2022-08-29T21:09:30.845Z,101775.19
2022-08-29T21:11:57.529Z,101776.25
2022-08-29T21:14:24.379Z,101774.66
2022-08-29T21:16:52.189Z,101766.50
2022-08-29T21:19:20.299Z,101776.78
2022-08-29T21:21:47.293Z,101772.06
2022-08-29T21:24:13.929Z,101777.56
2022-08-29T21:26:40.442Z,101773.63
2022-08-29T21:29:07.961Z,101785.75
2022-08-29T21:31:35.538Z,101779.41
2022-08-29T21:34:06.785Z,101781.28
2022-08-29T21:36:36.038Z,101778.91
2022-08-29T21:39:12.090Z,101774.16
2022-08-29T21:41:42.539Z,101781.00
2022-08-29T21:44:10.987Z,101766.47
2022-08-29T21:46:43.803Z,101776.50
2022-08-29T21:49:13.712Z,101779.94
2022-08-29T21:51:40.902Z,101778.34
2022-08-29T21:54:12.751Z,101774.63
2022-08-29T21:56:40.531Z,101780.44
2022-08-29T21:59:07.127Z,101781.44
2022-08-29T22:01:38.980Z,101784.84
2022-08-29T22:04:11.883Z,101785.41
2022-08-29T22:06:46.979Z,101773.03
2022-08-29T22:09:19.454Z,101781.41
2022-08-29T22:11:48.298Z,101786.44
2022-08-29T22:14:14.814Z,101776.66
2022-08-29T22:16:41.412Z,101780.63
2022-08-29T22:19:11.920Z,101766.38
2022-08-29T22:21:43.722Z,101775.88
2022-08-29T22:24:11.441Z,101772.72
2022-08-29T22:26:39.417Z,101784.28
2022-08-29T22:29:07.612Z,101780.88
2022-08-29T22:31:38.206Z,101783.50
2022-08-29T22:34:05.343Z,101780.59
2022-08-29T22:36:32.096Z,101779.00
2022-08-29T22:38:58.594Z,101781.91
2022-08-29T22:41:25.667Z,101782.94
2022-08-29T22:44:16.456Z,101776.91
2022-08-29T22:46:44.785Z,101778.19
2022-08-29T22:49:11.588Z,101786.38
2022-08-29T22:51:38.230Z,101786.09
2022-08-29T22:54:23.767Z,101785.59
2022-08-29T22:56:50.396Z,101778.47
2022-08-29T22:59:21.456Z,101777.69
2022-08-29T23:01:48.114Z,101774.50
2022-08-29T23:04:15.098Z,101772.91
2022-08-29T23:06:41.545Z,101776.06
2022-08-29T23:09:08.156Z,101772.13
2022-08-29T23:11:34.812Z,101775.81
2022-08-29T23:14:02.200Z,101783.44
2022-08-29T23:16:28.999Z,101782.91
2022-08-29T23:18:55.521Z,101776.34
2022-08-29T23:21:25.152Z,101782.91
2022-08-29T23:23:51.713Z,101781.31
2022-08-29T23:26:19.867Z,101787.09
2022-08-29T23:28:46.565Z,101772.38
2022-08-29T23:31:14.675Z,101780.28
2022-08-29T23:33:41.726Z,101780.78
2022-08-29T23:36:08.641Z,101786.56
2022-08-29T23:38:35.170Z,101786.06
2022-08-29T23:41:02.145Z,101777.59
2022-08-29T23:43:30.044Z,101775.78
2022-08-29T23:46:04.496Z,101779.97
2022-08-29T23:48:32.137Z,101769.47
2022-08-29T23:50:59.015Z,101768.91
2022-08-29T23:53:25.718Z,101775.25
2022-08-29T23:55:52.237Z,101771.03
2022-08-29T23:58:19.130Z,101771.81
